Celebrity Century — 9HJI9 — position and weather

sailwx.info

Track history (hours):
 
Tides and Currents Weather Stations Pressure Air Temp Water Temp Dewpoint Dewpoint Depression Visibility Wind Speed Wind Dir Waves Ship Positions

Celebrity Century

Last reported at 2020-Jan-24 10:13 UTC. Time now 2020-Jan-28 19:59 UTC.
Position N 17°14' W 062°45'.

Length 247 m; draft 8 m.

Type: Ship. MMSI: 249054000.

Date/timePositionNaut miles runAvg speedWind from/ knotsBaromVisibWave heightAir tempDewpointWater temp
2020-Jan-24 10:13N 17°14' W 062°45'16 5.9
2020-Jan-24 07:30N 16°59' W 062°51'7 8.0
2020-Jan-24 06:40N 16°55' W 062°46'68 1.9
2020-Jan-22 18:44N 18°01' W 063°03'0 0.0
2020-Jan-22 14:50N 18°01' W 063°03'0 0.0
2020-Jan-22 12:36N 18°01' W 063°03'0 0.1
2020-Jan-22 11:00N 18°01' W 063°03'12 6.0
2020-Jan-22 08:59N 17°55' W 063°15'4 7.5
2020-Jan-22 08:29N 17°54' W 063°18'8 0.3
2020-Jan-21 04:00N 17°46' W 063°20'612.6
2020-Jan-21 03:30N 17°43' W 063°14'612.2
2020-Jan-21 02:59N 17°40' W 063°09'2212.7
2020-Jan-21 01:16N 17°20' W 062°58'412.6
2020-Jan-21 00:56N 17°17' W 062°55'5012.6
2020-Jan-20 21:00N 16°36' W 062°26'  
Track history (hours):
 
Tides and Currents Weather Stations Pressure Air Temp Water Temp Dewpoint Dewpoint Depression Visibility Wind Speed Wind Dir Waves Ship Positions

Celebrity Century

Last reported at 2020-Jan-24 10:13 UTC. Time now 2020-Jan-28 19:59 UTC.
Position N 17°14' W 062°45'.

Length 247 m; draft 8 m.

Type: Ship. MMSI: 249054000.

Date/timePositionNaut miles runAvg speedWind from/ knotsBaromVisibWave heightAir tempDewpointWater temp
2020-Jan-24 10:13N 17°14' W 062°45'16 5.9
2020-Jan-24 07:30N 16°59' W 062°51'7 8.0
2020-Jan-24 06:40N 16°55' W 062°46'68 1.9
2020-Jan-22 18:44N 18°01' W 063°03'0 0.0
2020-Jan-22 14:50N 18°01' W 063°03'0 0.0
2020-Jan-22 12:36N 18°01' W 063°03'0 0.1
2020-Jan-22 11:00N 18°01' W 063°03'12 6.0
2020-Jan-22 08:59N 17°55' W 063°15'4 7.5
2020-Jan-22 08:29N 17°54' W 063°18'8 0.3
2020-Jan-21 04:00N 17°46' W 063°20'612.6
2020-Jan-21 03:30N 17°43' W 063°14'612.2
2020-Jan-21 02:59N 17°40' W 063°09'2212.7
2020-Jan-21 01:16N 17°20' W 062°58'412.6
2020-Jan-21 00:56N 17°17' W 062°55'5012.6
2020-Jan-20 21:00N 16°36' W 062°26'  

Dump ship's entire track history